KSIY

Siskiyou County Airport

Montague, California, USA
METAR KSIY 212153Z AUTO 14008KT 10SM CLR 30/M03 A3006 RMK AO2 SLP168 T03001033
Observed Flight Rules
Jun-21 @ 21:53 UTC (14 minutes ago) Visual Flight Rules
Wind Visibility Clouds
140° at 8 knots 10 miles
  • Clear skies
Temperatures Readings
Current 30°C / 86°F
Dewpoint -3°C / 27°F
Humidity 11%
Altimeter 30.06" Hg
Pressure 1016.8 hPa
Elevation 807
METAR KSIY 212153Z AUTO 14008KT 10SM CLR 30/M03 A3006 RMK AO2 SLP168 T03001033
Observed Flight Rules
Jun-21 @ 21:53 UTC
(14 minutes ago)
VFR
Wind Visibility
140° at 8 knots 10 miles
Clouds
  • Clear skies
Temperature Dewpoint
30°C / 86°F -3°C / 27°F
Humidity Altimeter Pressure
11% 30.06" Hg 1016.8 hPa